Alderley Edge, United Kingdom
Current Conditions -  °F | °C
As of 10:50 PM on Thursday 23 Oct 2014 (Local Time) from EGCC Reporting Station
Overcast Overcast  
Wind Chill: 55°   Ceiling: 4000
Heat Index: 55°   Visibility: 6mi
Dew Point: 54°   Wind: 14mph
Humidity: 94%   Direction: 200°SSW
Pressure: 29.88"   Gusts: NA
Location:  53.3°N, 2.24°W
Report Text: EGCC 232150Z AUTO 20012KT 9999 OVC040 13/12 Q1012
Loading
Personal Weather Stations






























Interactive Weather Map
Tropical Storm Tracking
New forecast layout! Learn more

10-Day Weather Forecast

Advertisements
Track Severe Weather on mobile